sensor_id;sensor_type;location;lat;lon;timestamp;temperature;humidity
63277;DHT22;49403;51.046;13.780;2022-12-07T00:00:18;7.30;76.90
63277;DHT22;49403;51.046;13.780;2022-12-07T00:00:48;7.20;77.20
63277;DHT22;49403;51.046;13.780;2022-12-07T00:01:22;7.70;77.30
63277;DHT22;49403;51.046;13.780;2022-12-07T00:01:53;7.20;76.50
63277;DHT22;49403;51.046;13.780;2022-12-07T00:02:24;7.20;77.20
63277;DHT22;49403;51.046;13.780;2022-12-07T00:02:55;7.20;77.30
63277;DHT22;49403;51.046;13.780;2022-12-07T00:03:26;6.90;77.10
63277;DHT22;49403;51.046;13.780;2022-12-07T00:03:59;7.20;77.40
63277;DHT22;49403;51.046;13.780;2022-12-07T00:04:36;7.20;77.10
63277;DHT22;49403;51.046;13.780;2022-12-07T00:05:07;7.20;77.60
63277;DHT22;49403;51.046;13.780;2022-12-07T00:05:38;7.30;77.60
63277;DHT22;49403;51.046;13.780;2022-12-07T00:06:11;7.20;77.50
63277;DHT22;49403;51.046;13.780;2022-12-07T00:06:45;6.80;76.40
63277;DHT22;49403;51.046;13.780;2022-12-07T00:07:16;8.40;77.70
63277;DHT22;49403;51.046;13.780;2022-12-07T00:07:47;7.20;76.90
63277;DHT22;49403;51.046;13.780;2022-12-07T00:08:17;7.20;76.70
63277;DHT22;49403;51.046;13.780;2022-12-07T00:08:48;7.70;77.10
63277;DHT22;49403;51.046;13.780;2022-12-07T00:09:19;6.30;75.30
63277;DHT22;49403;51.046;13.780;2022-12-07T00:09:50;7.10;76.60
63277;DHT22;49403;51.046;13.780;2022-12-07T00:10:21;7.90;77.20
63277;DHT22;49403;51.046;13.780;2022-12-07T00:10:52;7.10;76.40
63277;DHT22;49403;51.046;13.780;2022-12-07T00:11:23;7.00;76.40
63277;DHT22;49403;51.046;13.780;2022-12-07T00:11:54;7.00;76.10
63277;DHT22;49403;51.046;13.780;2022-12-07T00:12:25;7.00;76.70
63277;DHT22;49403;51.046;13.780;2022-12-07T00:12:56;7.00;76.90
63277;DHT22;49403;51.046;13.780;2022-12-07T00:13:27;6.90;76.80
63277;DHT22;49403;51.046;13.780;2022-12-07T00:14:00;6.90;77.00
63277;DHT22;49403;51.046;13.780;2022-12-07T00:14:31;6.90;76.50
63277;DHT22;49403;51.046;13.780;2022-12-07T00:15:02;6.90;76.90
63277;DHT22;49403;51.046;13.780;2022-12-07T00:15:33;6.90;76.60
63277;DHT22;49403;51.046;13.780;2022-12-07T00:16:39;6.90;77.10
63277;DHT22;49403;51.046;13.780;2022-12-07T00:17:10;6.90;77.20
63277;DHT22;49403;51.046;13.780;2022-12-07T00:17:41;6.90;77.20
63277;DHT22;49403;51.046;13.780;2022-12-07T00:18:12;6.90;77.20
63277;DHT22;49403;51.046;13.780;2022-12-07T00:18:43;6.90;77.20
63277;DHT22;49403;51.046;13.780;2022-12-07T00:19:14;6.90;76.80
63277;DHT22;49403;51.046;13.780;2022-12-07T00:19:45;6.90;77.20
63277;DHT22;49403;51.046;13.780;2022-12-07T00:20:16;6.90;77.10
63277;DHT22;49403;51.046;13.780;2022-12-07T00:20:46;6.90;77.00
63277;DHT22;49403;51.046;13.780;2022-12-07T00:21:20;6.30;76.50
63277;DHT22;49403;51.046;13.780;2022-12-07T00:21:51;7.00;76.60
63277;DHT22;49403;51.046;13.780;2022-12-07T00:22:22;6.90;77.10
63277;DHT22;49403;51.046;13.780;2022-12-07T00:22:53;6.90;77.20
63277;DHT22;49403;51.046;13.780;2022-12-07T00:23:24;6.90;77.20
63277;DHT22;49403;51.046;13.780;2022-12-07T00:23:55;6.90;77.00
63277;DHT22;49403;51.046;13.780;2022-12-07T00:24:26;6.90;76.60
63277;DHT22;49403;51.046;13.780;2022-12-07T00:24:57;6.90;77.20
63277;DHT22;49403;51.046;13.780;2022-12-07T00:25:28;6.90;77.20
63277;DHT22;49403;51.046;13.780;2022-12-07T00:26:08;6.40;76.30
63277;DHT22;49403;51.046;13.780;2022-12-07T00:26:40;6.90;77.00
63277;DHT22;49403;51.046;13.780;2022-12-07T00:27:12;6.90;77.00
63277;DHT22;49403;51.046;13.780;2022-12-07T00:27:42;6.80;77.40
63277;DHT22;49403;51.046;13.780;2022-12-07T00:28:13;6.90;77.60
63277;DHT22;49403;51.046;13.780;2022-12-07T00:28:51;7.00;77.50
63277;DHT22;49403;51.046;13.780;2022-12-07T00:29:23;7.00;76.80
63277;DHT22;49403;51.046;13.780;2022-12-07T00:29:54;7.00;77.40
63277;DHT22;49403;51.046;13.780;2022-12-07T00:30:24;7.00;77.30
63277;DHT22;49403;51.046;13.780;2022-12-07T00:31:06;7.00;77.30
63277;DHT22;49403;51.046;13.780;2022-12-07T00:31:37;7.10;76.80
63277;DHT22;49403;51.046;13.780;2022-12-07T00:32:09;7.10;77.30
63277;DHT22;49403;51.046;13.780;2022-12-07T00:32:40;7.10;77.30
63277;DHT22;49403;51.046;13.780;2022-12-07T00:33:10;8.70;78.80
63277;DHT22;49403;51.046;13.780;2022-12-07T00:33:42;7.10;77.20
63277;DHT22;49403;51.046;13.780;2022-12-07T00:34:18;7.10;76.60
63277;DHT22;49403;51.046;13.780;2022-12-07T00:34:49;7.10;76.30
63277;DHT22;49403;51.046;13.780;2022-12-07T00:35:20;7.50;77.10
63277;DHT22;49403;51.046;13.780;2022-12-07T00:35:56;7.10;76.80
63277;DHT22;49403;51.046;13.780;2022-12-07T00:36:27;7.10;76.30
63277;DHT22;49403;51.046;13.780;2022-12-07T00:36:58;7.10;76.70
63277;DHT22;49403;51.046;13.780;2022-12-07T00:37:28;7.10;76.90
63277;DHT22;49403;51.046;13.780;2022-12-07T00:37:59;7.20;77.00
63277;DHT22;49403;51.046;13.780;2022-12-07T00:38:32;7.20;77.00
63277;DHT22;49403;51.046;13.780;2022-12-07T00:39:03;7.20;76.40
63277;DHT22;49403;51.046;13.780;2022-12-07T00:39:34;6.00;75.60
63277;DHT22;49403;51.046;13.780;2022-12-07T00:40:06;8.00;77.20
63277;DHT22;49403;51.046;13.780;2022-12-07T00:40:37;6.80;75.60
63277;DHT22;49403;51.046;13.780;2022-12-07T00:41:12;7.20;76.10
63277;DHT22;49403;51.046;13.780;2022-12-07T00:41:44;7.10;76.00
63277;DHT22;49403;51.046;13.780;2022-12-07T00:42:14;7.10;76.00
63277;DHT22;49403;51.046;13.780;2022-12-07T00:42:45;7.00;76.10
63277;DHT22;49403;51.046;13.780;2022-12-07T00:43:16;7.10;76.30
63277;DHT22;49403;51.046;13.780;2022-12-07T00:43:48;7.10;76.30
63277;DHT22;49403;51.046;13.780;2022-12-07T00:44:19;7.00;75.80
63277;DHT22;49403;51.046;13.780;2022-12-07T00:44:50;7.00;76.30
63277;DHT22;49403;51.046;13.780;2022-12-07T00:45:21;7.00;76.50
63277;DHT22;49403;51.046;13.780;2022-12-07T00:45:52;7.00;76.50
63277;DHT22;49403;51.046;13.780;2022-12-07T00:46:23;5.70;75.20
63277;DHT22;49403;51.046;13.780;2022-12-07T00:46:55;7.10;76.20
63277;DHT22;49403;51.046;13.780;2022-12-07T00:47:26;7.10;76.60
63277;DHT22;49403;51.046;13.780;2022-12-07T00:47:57;7.10;76.40
63277;DHT22;49403;51.046;13.780;2022-12-07T00:48:27;7.00;76.40
63277;DHT22;49403;51.046;13.780;2022-12-07T00:48:58;7.00;76.40
63277;DHT22;49403;51.046;13.780;2022-12-07T00:49:29;7.00;76.50
63277;DHT22;49403;51.046;13.780;2022-12-07T00:50:00;7.10;76.60
63277;DHT22;49403;51.046;13.780;2022-12-07T00:50:31;8.50;77.80
63277;DHT22;49403;51.046;13.780;2022-12-07T00:51:02;7.10;76.40
63277;DHT22;49403;51.046;13.780;2022-12-07T00:51:33;7.10;76.00
63277;DHT22;49403;51.046;13.780;2022-12-07T00:52:04;8.00;77.10
63277;DHT22;49403;51.046;13.780;2022-12-07T00:52:35;6.20;75.50
63277;DHT22;49403;51.046;13.780;2022-12-07T00:53:05;6.00;75.20
63277;DHT22;49403;51.046;13.780;2022-12-07T00:53:37;7.00;76.20
63277;DHT22;49403;51.046;13.780;2022-12-07T00:54:08;7.10;75.80
63277;DHT22;49403;51.046;13.780;2022-12-07T00:54:40;7.00;76.20
63277;DHT22;49403;51.046;13.780;2022-12-07T00:55:10;7.10;76.00
63277;DHT22;49403;51.046;13.780;2022-12-07T00:55:42;7.10;76.50
63277;DHT22;49403;51.046;13.780;2022-12-07T00:56:15;7.10;76.20
63277;DHT22;49403;51.046;13.780;2022-12-07T00:56:46;7.20;76.30
63277;DHT22;49403;51.046;13.780;2022-12-07T00:57:17;7.10;76.70
63277;DHT22;49403;51.046;13.780;2022-12-07T00:57:48;7.20;76.80
63277;DHT22;49403;51.046;13.780;2022-12-07T00:58:19;8.00;77.40
63277;DHT22;49403;51.046;13.780;2022-12-07T00:58:55;7.20;76.50
63277;DHT22;49403;51.046;13.780;2022-12-07T00:59:26;7.00;75.70
63277;DHT22;49403;51.046;13.780;2022-12-07T00:59:57;7.30;76.10
63277;DHT22;49403;51.046;13.780;2022-12-07T01:00:28;7.20;75.90
63277;DHT22;49403;51.046;13.780;2022-12-07T01:01:04;7.20;75.80
63277;DHT22;49403;51.046;13.780;2022-12-07T01:01:36;7.20;75.20
63277;DHT22;49403;51.046;13.780;2022-12-07T01:02:07;7.30;75.70
63277;DHT22;49403;51.046;13.780;2022-12-07T01:02:38;6.40;75.10
63277;DHT22;49403;51.046;13.780;2022-12-07T01:03:11;7.20;75.90
63277;DHT22;49403;51.046;13.780;2022-12-07T01:03:42;7.30;75.60
63277;DHT22;49403;51.046;13.780;2022-12-07T01:04:13;7.30;76.00
63277;DHT22;49403;51.046;13.780;2022-12-07T01:04:44;7.30;76.00
63277;DHT22;49403;51.046;13.780;2022-12-07T01:05:15;7.50;76.10
63277;DHT22;49403;51.046;13.780;2022-12-07T01:05:53;7.30;75.80
63277;DHT22;49403;51.046;13.780;2022-12-07T01:06:25;7.30;75.20
63277;DHT22;49403;51.046;13.780;2022-12-07T01:06:56;8.70;76.60
63277;DHT22;49403;51.046;13.780;2022-12-07T01:07:27;7.30;75.80
63277;DHT22;49403;51.046;13.780;2022-12-07T01:07:57;7.30;75.80
63277;DHT22;49403;51.046;13.780;2022-12-07T01:08:30;7.40;75.90
63277;DHT22;49403;51.046;13.780;2022-12-07T01:09:02;7.40;75.50
63277;DHT22;49403;51.046;13.780;2022-12-07T01:09:34;7.40;75.50
63277;DHT22;49403;51.046;13.780;2022-12-07T01:10:06;7.20;75.60
63277;DHT22;49403;51.046;13.780;2022-12-07T01:10:37;7.80;75.70
63277;DHT22;49403;51.046;13.780;2022-12-07T01:11:11;7.40;75.60
63277;DHT22;49403;51.046;13.780;2022-12-07T01:11:42;7.40;75.20
63277;DHT22;49403;51.046;13.780;2022-12-07T01:12:13;7.40;75.70
63277;DHT22;49403;51.046;13.780;2022-12-07T01:12:44;7.40;75.70
63277;DHT22;49403;51.046;13.780;2022-12-07T01:13:16;7.40;75.40
63277;DHT22;49403;51.046;13.780;2022-12-07T01:13:48;7.70;75.70
63277;DHT22;49403;51.046;13.780;2022-12-07T01:14:19;7.50;75.00
63277;DHT22;49403;51.046;13.780;2022-12-07T01:14:50;7.40;75.10
63277;DHT22;49403;51.046;13.780;2022-12-07T01:15:21;7.40;75.10
63277;DHT22;49403;51.046;13.780;2022-12-07T01:15:55;7.40;75.20
63277;DHT22;49403;51.046;13.780;2022-12-07T01:16:29;7.50;74.80
63277;DHT22;49403;51.046;13.780;2022-12-07T01:17:00;7.40;74.90
63277;DHT22;49403;51.046;13.780;2022-12-07T01:17:31;7.40;75.40
63277;DHT22;49403;51.046;13.780;2022-12-07T01:18:02;7.40;75.40
63277;DHT22;49403;51.046;13.780;2022-12-07T01:18:35;6.80;74.80
63277;DHT22;49403;51.046;13.780;2022-12-07T01:19:06;7.40;74.90
63277;DHT22;49403;51.046;13.780;2022-12-07T01:19:37;7.40;75.30
63277;DHT22;49403;51.046;13.780;2022-12-07T01:20:08;8.70;76.70
63277;DHT22;49403;51.046;13.780;2022-12-07T01:20:39;7.50;75.00
63277;DHT22;49403;51.046;13.780;2022-12-07T01:21:13;8.10;76.00
63277;DHT22;49403;51.046;13.780;2022-12-07T01:21:44;7.50;75.00
63277;DHT22;49403;51.046;13.780;2022-12-07T01:22:15;7.60;75.50
63277;DHT22;49403;51.046;13.780;2022-12-07T01:22:46;7.80;75.50
63277;DHT22;49403;51.046;13.780;2022-12-07T01:23:17;7.80;75.50
63277;DHT22;49403;51.046;13.780;2022-12-07T01:23:49;7.70;75.30
63277;DHT22;49403;51.046;13.780;2022-12-07T01:24:20;9.40;76.20
63277;DHT22;49403;51.046;13.780;2022-12-07T01:24:50;7.70;75.00
63277;DHT22;49403;51.046;13.780;2022-12-07T01:25:21;7.70;75.00
63277;DHT22;49403;51.046;13.780;2022-12-07T01:25:59;7.70;74.90
63277;DHT22;49403;51.046;13.780;2022-12-07T01:26:30;7.70;74.30
63277;DHT22;49403;51.046;13.780;2022-12-07T01:27:01;7.70;74.20
63277;DHT22;49403;51.046;13.780;2022-12-07T01:27:33;6.50;73.30
63277;DHT22;49403;51.046;13.780;2022-12-07T01:28:04;7.70;74.00
63277;DHT22;49403;51.046;13.780;2022-12-07T01:28:35;7.70;74.50
63277;DHT22;49403;51.046;13.780;2022-12-07T01:29:06;7.70;74.60
63277;DHT22;49403;51.046;13.780;2022-12-07T01:29:37;7.70;74.80
63277;DHT22;49403;51.046;13.780;2022-12-07T01:30:09;7.70;74.80
63277;DHT22;49403;51.046;13.780;2022-12-07T01:30:40;7.70;74.40
63277;DHT22;49403;51.046;13.780;2022-12-07T01:31:17;7.80;75.00
63277;DHT22;49403;51.046;13.780;2022-12-07T01:31:49;8.00;74.70
63277;DHT22;49403;51.046;13.780;2022-12-07T01:32:20;7.80;75.00
63277;DHT22;49403;51.046;13.780;2022-12-07T01:32:51;7.80;74.90
63277;DHT22;49403;51.046;13.780;2022-12-07T01:33:21;6.30;73.40
63277;DHT22;49403;51.046;13.780;2022-12-07T01:33:58;7.90;74.90
63277;DHT22;49403;51.046;13.780;2022-12-07T01:34:28;7.90;74.10
63277;DHT22;49403;51.046;13.780;2022-12-07T01:34:59;8.00;74.80
63277;DHT22;49403;51.046;13.780;2022-12-07T01:35:33;7.90;74.50
63277;DHT22;49403;51.046;13.780;2022-12-07T01:36:28;7.90;73.90
63277;DHT22;49403;51.046;13.780;2022-12-07T01:36:59;7.90;73.70
63277;DHT22;49403;51.046;13.780;2022-12-07T01:37:35;7.90;74.40
63277;DHT22;49403;51.046;13.780;2022-12-07T01:38:06;7.90;74.00
63277;DHT22;49403;51.046;13.780;2022-12-07T01:38:37;7.70;74.30
63277;DHT22;49403;51.046;13.780;2022-12-07T01:39:09;7.90;74.40
63277;DHT22;49403;51.046;13.780;2022-12-07T01:39:40;6.60;73.20
63277;DHT22;49403;51.046;13.780;2022-12-07T01:40:12;7.90;74.10
63277;DHT22;49403;51.046;13.780;2022-12-07T01:40:43;7.90;74.00
63277;DHT22;49403;51.046;13.780;2022-12-07T01:41:14;8.60;74.00
63277;DHT22;49403;51.046;13.780;2022-12-07T01:41:45;8.00;73.50
63277;DHT22;49403;51.046;13.780;2022-12-07T01:42:17;6.30;72.00
63277;DHT22;49403;51.046;13.780;2022-12-07T01:42:48;8.00;73.20
63277;DHT22;49403;51.046;13.780;2022-12-07T01:43:19;7.90;73.60
63277;DHT22;49403;51.046;13.780;2022-12-07T01:45:47;7.80;72.70
63277;DHT22;49403;51.046;13.780;2022-12-07T01:46:18;7.70;73.70
63277;DHT22;49403;51.046;13.780;2022-12-07T01:46:58;7.70;73.80
63277;DHT22;49403;51.046;13.780;2022-12-07T01:47:29;7.70;73.40
63277;DHT22;49403;51.046;13.780;2022-12-07T01:48:00;7.70;73.90
63277;DHT22;49403;51.046;13.780;2022-12-07T01:48:38;7.70;73.90
63277;DHT22;49403;51.046;13.780;2022-12-07T01:49:58;7.80;73.50
63277;DHT22;49403;51.046;13.780;2022-12-07T01:50:04;7.70;73.50
63277;DHT22;49403;51.046;13.780;2022-12-07T01:50:36;7.60;73.80
63277;DHT22;49403;51.046;13.780;2022-12-07T01:51:12;7.60;73.40
63277;DHT22;49403;51.046;13.780;2022-12-07T01:51:45;8.80;74.60
63277;DHT22;49403;51.046;13.780;2022-12-07T01:52:29;7.60;73.50
63277;DHT22;49403;51.046;13.780;2022-12-07T01:53:04;7.50;73.20
63277;DHT22;49403;51.046;13.780;2022-12-07T01:53:41;7.60;73.60
63277;DHT22;49403;51.046;13.780;2022-12-07T01:54:14;7.60;73.60
63277;DHT22;49403;51.046;13.780;2022-12-07T01:54:48;7.60;73.50
63277;DHT22;49403;51.046;13.780;2022-12-07T01:55:20;7.60;73.70
63277;DHT22;49403;51.046;13.780;2022-12-07T01:55:52;7.60;74.10
63277;DHT22;49403;51.046;13.780;2022-12-07T01:56:25;7.60;73.60
63277;DHT22;49403;51.046;13.780;2022-12-07T01:56:58;7.60;73.60
63277;DHT22;49403;51.046;13.780;2022-12-07T01:57:31;7.70;74.30
63277;DHT22;49403;51.046;13.780;2022-12-07T01:58:04;7.70;73.60
63277;DHT22;49403;51.046;13.780;2022-12-07T01:58:35;8.40;74.30
63277;DHT22;49403;51.046;13.780;2022-12-07T01:59:06;7.60;73.60
63277;DHT22;49403;51.046;13.780;2022-12-07T01:59:37;7.60;74.10
63277;DHT22;49403;51.046;13.780;2022-12-07T02:00:09;7.60;73.60
63277;DHT22;49403;51.046;13.780;2022-12-07T02:00:41;7.60;73.60
63277;DHT22;49403;51.046;13.780;2022-12-07T02:01:12;7.60;73.60
63277;DHT22;49403;51.046;13.780;2022-12-07T02:01:44;7.60;73.70
63277;DHT22;49403;51.046;13.780;2022-12-07T02:02:27;7.60;74.30
63277;DHT22;49403;51.046;13.780;2022-12-07T02:03:18;7.60;73.80
63277;DHT22;49403;51.046;13.780;2022-12-07T02:03:50;7.70;73.70
63277;DHT22;49403;51.046;13.780;2022-12-07T02:04:22;7.60;74.90
63277;DHT22;49403;51.046;13.780;2022-12-07T02:04:54;7.50;73.50
63277;DHT22;49403;51.046;13.780;2022-12-07T02:05:26;7.90;73.90
63277;DHT22;49403;51.046;13.780;2022-12-07T02:05:59;7.50;73.60
63277;DHT22;49403;51.046;13.780;2022-12-07T02:06:30;8.70;74.90
63277;DHT22;49403;51.046;13.780;2022-12-07T02:07:03;7.40;74.30
63277;DHT22;49403;51.046;13.780;2022-12-07T02:07:37;7.40;73.90
63277;DHT22;49403;51.046;13.780;2022-12-07T02:08:09;7.40;73.80
63277;DHT22;49403;51.046;13.780;2022-12-07T02:08:42;7.40;73.70
63277;DHT22;49403;51.046;13.780;2022-12-07T02:09:13;7.40;73.80
63277;DHT22;49403;51.046;13.780;2022-12-07T02:09:44;7.30;74.20
63277;DHT22;49403;51.046;13.780;2022-12-07T02:10:17;7.30;74.30
63277;DHT22;49403;51.046;13.780;2022-12-07T02:10:48;7.30;73.90
63277;DHT22;49403;51.046;13.780;2022-12-07T02:11:20;7.30;74.50
63277;DHT22;49403;51.046;13.780;2022-12-07T02:11:52;7.30;74.10
63277;DHT22;49403;51.046;13.780;2022-12-07T02:12:24;7.20;74.10
63277;DHT22;49403;51.046;13.780;2022-12-07T02:13:40;7.20;74.70
63277;DHT22;49403;51.046;13.780;2022-12-07T02:14:12;7.10;74.40
63277;DHT22;49403;51.046;13.780;2022-12-07T02:14:43;7.10;75.10
63277;DHT22;49403;51.046;13.780;2022-12-07T02:15:14;7.10;75.10
63277;DHT22;49403;51.046;13.780;2022-12-07T02:18:02;6.60;74.30
63277;DHT22;49403;51.046;13.780;2022-12-07T02:19:31;7.00;75.10
63277;DHT22;49403;51.046;13.780;2022-12-07T02:20:20;7.10;75.30
63277;DHT22;49403;51.046;13.780;2022-12-07T02:21:32;6.60;74.90
63277;DHT22;49403;51.046;13.780;2022-12-07T02:23:33;6.90;75.20
63277;DHT22;49403;51.046;13.780;2022-12-07T02:26:09;6.80;75.30
63277;DHT22;49403;51.046;13.780;2022-12-07T02:26:47;6.70;75.70
63277;DHT22;49403;51.046;13.780;2022-12-07T02:27:43;7.70;76.60
63277;DHT22;49403;51.046;13.780;2022-12-07T02:28:37;6.70;75.60
63277;DHT22;49403;51.046;13.780;2022-12-07T02:29:58;6.60;76.50
63277;DHT22;49403;51.046;13.780;2022-12-07T02:30:35;6.60;75.80
63277;DHT22;49403;51.046;13.780;2022-12-07T02:31:17;6.60;76.20
63277;DHT22;49403;51.046;13.780;2022-12-07T02:33:33;6.60;76.70
63277;DHT22;49403;51.046;13.780;2022-12-07T02:34:18;6.60;76.00
63277;DHT22;49403;51.046;13.780;2022-12-07T02:34:57;6.60;75.90
63277;DHT22;49403;51.046;13.780;2022-12-07T02:36:32;6.60;75.70
63277;DHT22;49403;51.046;13.780;2022-12-07T02:37:12;7.20;76.40
63277;DHT22;49403;51.046;13.780;2022-12-07T02:38:07;6.50;75.80
63277;DHT22;49403;51.046;13.780;2022-12-07T02:39:05;6.80;76.30
63277;DHT22;49403;51.046;13.780;2022-12-07T02:40:10;6.40;76.00
63277;DHT22;49403;51.046;13.780;2022-12-07T02:42:15;6.30;75.80
63277;DHT22;49403;51.046;13.780;2022-12-07T02:42:51;8.20;78.20
63277;DHT22;49403;51.046;13.780;2022-12-07T02:43:30;6.10;76.30
63277;DHT22;49403;51.046;13.780;2022-12-07T02:44:11;6.30;77.40
63277;DHT22;49403;51.046;13.780;2022-12-07T02:44:44;6.20;76.70
63277;DHT22;49403;51.046;13.780;2022-12-07T02:45:20;6.20;76.60
63277;DHT22;49403;51.046;13.780;2022-12-07T02:45:53;6.90;77.20
63277;DHT22;49403;51.046;13.780;2022-12-07T02:46:30;6.20;76.60
63277;DHT22;49403;51.046;13.780;2022-12-07T02:47:05;6.20;76.50
63277;DHT22;49403;51.046;13.780;2022-12-07T02:47:37;6.40;76.70
63277;DHT22;49403;51.046;13.780;2022-12-07T02:48:10;6.40;76.80
63277;DHT22;49403;51.046;13.780;2022-12-07T02:48:43;6.30;76.80
63277;DHT22;49403;51.046;13.780;2022-12-07T02:49:14;6.30;77.50
63277;DHT22;49403;51.046;13.780;2022-12-07T02:49:46;5.10;75.60
63277;DHT22;49403;51.046;13.780;2022-12-07T02:50:20;6.40;76.80
63277;DHT22;49403;51.046;13.780;2022-12-07T02:50:52;6.50;76.90
63277;DHT22;49403;51.046;13.780;2022-12-07T02:51:23;6.50;76.70
63277;DHT22;49403;51.046;13.780;2022-12-07T02:51:54;5.90;76.50
63277;DHT22;49403;51.046;13.780;2022-12-07T02:52:25;6.60;77.00
63277;DHT22;49403;51.046;13.780;2022-12-07T02:52:56;6.50;77.00
63277;DHT22;49403;51.046;13.780;2022-12-07T02:53:34;6.60;77.00
63277;DHT22;49403;51.046;13.780;2022-12-07T02:54:12;6.60;76.50
63277;DHT22;49403;51.046;13.780;2022-12-07T02:54:43;6.60;76.40
63277;DHT22;49403;51.046;13.780;2022-12-07T02:55:17;6.60;77.50
63277;DHT22;49403;51.046;13.780;2022-12-07T02:55:49;6.70;76.50
63277;DHT22;49403;51.046;13.780;2022-12-07T02:56:46;6.70;77.00
63277;DHT22;49403;51.046;13.780;2022-12-07T03:00:19;6.60;76.00
63277;DHT22;49403;51.046;13.780;2022-12-07T03:03:04;6.60;75.80
63277;DHT22;49403;51.046;13.780;2022-12-07T03:03:37;4.90;74.60
63277;DHT22;49403;51.046;13.780;2022-12-07T03:06:29;6.40;75.70
63277;DHT22;49403;51.046;13.780;2022-12-07T03:07:15;6.30;75.70
63277;DHT22;49403;51.046;13.780;2022-12-07T03:09:14;6.30;76.00
63277;DHT22;49403;51.046;13.780;2022-12-07T03:12:01;6.30;76.30
63277;DHT22;49403;51.046;13.780;2022-12-07T03:12:39;6.30;76.50
63277;DHT22;49403;51.046;13.780;2022-12-07T03:13:21;6.30;76.20
63277;DHT22;49403;51.046;13.780;2022-12-07T03:14:04;6.40;76.30
63277;DHT22;49403;51.046;13.780;2022-12-07T03:14:43;6.40;76.20
63277;DHT22;49403;51.046;13.780;2022-12-07T03:15:27;6.40;76.40
63277;DHT22;49403;51.046;13.780;2022-12-07T03:16:15;6.50;76.20
63277;DHT22;49403;51.046;13.780;2022-12-07T03:17:12;6.50;76.00
63277;DHT22;49403;51.046;13.780;2022-12-07T03:17:45;6.50;75.90
63277;DHT22;49403;51.046;13.780;2022-12-07T03:18:20;6.50;76.20
63277;DHT22;49403;51.046;13.780;2022-12-07T03:18:58;7.50;77.10
63277;DHT22;49403;51.046;13.780;2022-12-07T03:19:31;6.10;75.70
63277;DHT22;49403;51.046;13.780;2022-12-07T03:20:06;6.60;76.10
63277;DHT22;49403;51.046;13.780;2022-12-07T03:20:39;7.80;77.10
63277;DHT22;49403;51.046;13.780;2022-12-07T03:21:17;5.70;75.00
63277;DHT22;49403;51.046;13.780;2022-12-07T03:21:55;6.70;75.90
63277;DHT22;49403;51.046;13.780;2022-12-07T03:22:28;6.80;75.80
63277;DHT22;49403;51.046;13.780;2022-12-07T03:23:04;6.70;75.90
63277;DHT22;49403;51.046;13.780;2022-12-07T03:23:38;5.70;74.60
63277;DHT22;49403;51.046;13.780;2022-12-07T03:24:18;6.50;75.20
63277;DHT22;49403;51.046;13.780;2022-12-07T03:24:53;6.90;75.50
63277;DHT22;49403;51.046;13.780;2022-12-07T03:25:26;6.80;75.30
63277;DHT22;49403;51.046;13.780;2022-12-07T03:25:59;6.80;75.20
63277;DHT22;49403;51.046;13.780;2022-12-07T03:26:37;6.80;75.10
63277;DHT22;49403;51.046;13.780;2022-12-07T03:27:19;5.90;73.80
63277;DHT22;49403;51.046;13.780;2022-12-07T03:27:56;6.80;74.80
63277;DHT22;49403;51.046;13.780;2022-12-07T03:28:33;6.30;74.40
63277;DHT22;49403;51.046;13.780;2022-12-07T03:29:09;6.80;75.00
63277;DHT22;49403;51.046;13.780;2022-12-07T03:29:47;6.80;74.90
63277;DHT22;49403;51.046;13.780;2022-12-07T03:30:23;8.30;76.40
63277;DHT22;49403;51.046;13.780;2022-12-07T03:31:41;6.80;74.80
63277;DHT22;49403;51.046;13.780;2022-12-07T03:32:27;6.70;74.90
63277;DHT22;49403;51.046;13.780;2022-12-07T03:33:04;6.70;74.70
63277;DHT22;49403;51.046;13.780;2022-12-07T03:33:48;6.60;74.80
63277;DHT22;49403;51.046;13.780;2022-12-07T03:34:32;7.60;75.80
63277;DHT22;49403;51.046;13.780;2022-12-07T03:35:45;6.50;74.50
63277;DHT22;49403;51.046;13.780;2022-12-07T03:36:29;7.30;75.60
63277;DHT22;49403;51.046;13.780;2022-12-07T03:37:04;6.50;75.00
63277;DHT22;49403;51.046;13.780;2022-12-07T03:38:23;6.40;74.80
63277;DHT22;49403;51.046;13.780;2022-12-07T03:39:03;6.40;74.90
63277;DHT22;49403;51.046;13.780;2022-12-07T03:40:04;4.60;73.70
63277;DHT22;49403;51.046;13.780;2022-12-07T03:40:58;6.40;75.10
63277;DHT22;49403;51.046;13.780;2022-12-07T03:41:33;6.30;75.10
63277;DHT22;49403;51.046;13.780;2022-12-07T03:42:06;6.20;75.50
63277;DHT22;49403;51.046;13.780;2022-12-07T03:42:38;5.80;75.20
63277;DHT22;49403;51.046;13.780;2022-12-07T03:43:09;6.10;75.60
63277;DHT22;49403;51.046;13.780;2022-12-07T03:43:40;5.70;75.80
63277;DHT22;49403;51.046;13.780;2022-12-07T03:44:12;6.20;75.80
63277;DHT22;49403;51.046;13.780;2022-12-07T03:44:44;4.60;74.20
63277;DHT22;49403;51.046;13.780;2022-12-07T03:45:16;8.20;78.00
63277;DHT22;49403;51.046;13.780;2022-12-07T03:49:00;6.20;76.50
63277;DHT22;49403;51.046;13.780;2022-12-07T03:49:45;6.10;75.90
63277;DHT22;49403;51.046;13.780;2022-12-07T03:50:44;7.20;77.10
63277;DHT22;49403;51.046;13.780;2022-12-07T03:51:22;5.90;75.60
63277;DHT22;49403;51.046;13.780;2022-12-07T03:53:08;6.00;76.70
63277;DHT22;49403;51.046;13.780;2022-12-07T03:53:48;4.40;74.30
63277;DHT22;49403;51.046;13.780;2022-12-07T03:54:32;6.00;76.20
63277;DHT22;49403;51.046;13.780;2022-12-07T03:55:29;6.00;76.20
63277;DHT22;49403;51.046;13.780;2022-12-07T03:56:02;5.90;75.90
63277;DHT22;49403;51.046;13.780;2022-12-07T03:56:33;5.90;76.20
63277;DHT22;49403;51.046;13.780;2022-12-07T03:57:06;4.50;75.00
63277;DHT22;49403;51.046;13.780;2022-12-07T03:57:38;6.80;77.10
63277;DHT22;49403;51.046;13.780;2022-12-07T03:58:16;6.20;76.50
63277;DHT22;49403;51.046;13.780;2022-12-07T03:58:48;5.90;76.30
63277;DHT22;49403;51.046;13.780;2022-12-07T03:59:19;6.50;77.00
63277;DHT22;49403;51.046;13.780;2022-12-07T03:59:51;6.00;76.30
63277;DHT22;49403;51.046;13.780;2022-12-07T04:00:24;6.30;76.70
63277;DHT22;49403;51.046;13.780;2022-12-07T04:00:55;5.90;76.70
63277;DHT22;49403;51.046;13.780;2022-12-07T04:01:27;4.70;75.50
63277;DHT22;49403;51.046;13.780;2022-12-07T04:02:02;4.20;74.90
63277;DHT22;49403;51.046;13.780;2022-12-07T04:02:33;7.70;77.70
63277;DHT22;49403;51.046;13.780;2022-12-07T04:03:04;5.70;75.80
63277;DHT22;49403;51.046;13.780;2022-12-07T04:03:35;4.40;75.20
63277;DHT22;49403;51.046;13.780;2022-12-07T04:04:06;6.00;76.70
63277;DHT22;49403;51.046;13.780;2022-12-07T04:04:36;6.00;76.60
63277;DHT22;49403;51.046;13.780;2022-12-07T04:05:08;6.20;76.90
63277;DHT22;49403;51.046;13.780;2022-12-07T04:05:39;5.90;76.20
63277;DHT22;49403;51.046;13.780;2022-12-07T04:06:11;6.10;76.00
63277;DHT22;49403;51.046;13.780;2022-12-07T04:06:42;6.90;77.10
63277;DHT22;49403;51.046;13.780;2022-12-07T04:07:12;5.90;76.20
63277;DHT22;49403;51.046;13.780;2022-12-07T04:07:43;6.60;76.70